メインページ
METAR-TAF:

METAR-TAF

空港 :

モントリオール・トルドー, ケベック州, カナダ

モントリオール・ピエール・エリオット・トルドー国際空港

緯度: 45-28N, 経度: 073-45W, 海抜: 31m

現時点の気象観測

当レポートは42分前の19:00(UTC)に作成
東/北東の風 5kt
気温 2°C
湿度 32%
気圧 1029 hPa
視程: 24.1km
高度4000ftの雲はほとんどない
高度22000ftの雲は散在している

METAR: CYUL 251900Z 07005KT 15SM FEW040 SCT220 02/M13 A3039 RMK SC1CI3 SLP296

時間: 15:42 (19:42 UTC)

予報

当レポートは2時間4分前の17:38(UTC)に作成
予報は25日の 18時(UTC)から 26日の 18時(UTC)まで有効
北東の風 12kt
視程: 10km
高度3000ftの雲は散在している
高度20000ftの千切れ雲あり
25日の 2000時(UTC)から
北東の風 10kt
視程: 10km
高度22000ftの千切れ雲あり
26日の 0000時(UTC)から
北東の風 6kt
視程: 10km
晴天
26日の 08時(UTC)から 26日の 10時(UTC)まで徐々に
北東の風 12kt
26日の 1700時(UTC)から
北東の風 12kt
視程: 10km
高度12000ftの千切れ雲あり
高度20000ftの曇り

TAF: CYUL 251738Z 2518/2618 04012KT P6SM SCT030 BKN200 FM252000 04010KT P6SM BKN220 FM260000 04006KT P6SM SKC BECMG 2608/2610 04012KT FM261700 04012KT P6SM BKN120 OVC200 RMK NXT FCST BY 252100Z

4,000以上の空港の気象観測と天気予報(METAR報とTAF報)

利用可能な観測所は地図上に黄色い丸と赤い丸で示す。

丸の上にカーソルを重ねると観測所名を参照できる。

次にクリックすると気象観測と天気予報を参照できる。

マップの切り替え:黒色「×」印の緑ボタンをクリックして拡大、「-」印の緑ボタンをクリックして縮小、緑色の三角印をクリックして隣りの地図に切り替え


METAR-TAF: